Time;durP1;ratioP1;P1;durP2;ratioP2;P2;SDS_P1;SDS_P2;PMS_P1;PMS_P2;Temp;Humidity;BMP_temperature;BMP_pressure;BME280_temperature;BME280_humidity;BME280_pressure;Samples;Min_cycle;Max_cycle;Signal;HPM_P1;HPM_P2
2021/08/04 00:02:08;;;;;;;7.63;5.45;;;;;;;;;;5004242;28;20040;-78
2021/08/04 00:04:33;;;;;;;7.95;5.53;;;;;;;;;;5020583;28;20466;-79
2021/08/04 00:06:59;;;;;;;5.93;5.25;;;;;;;;;;5019153;28;20077;-78
2021/08/04 00:09:24;;;;;;;6.63;5.38;;;;;;;;;;5017174;28;20029;-79
2021/08/04 00:11:53;;;;;;;5.93;5.13;;;;;;;;;;5017016;28;20038;-81
2021/08/04 00:14:18;;;;;;;6.90;5.53;;;;;;;;;;5033597;28;20065;-81
2021/08/04 00:16:43;;;;;;;6.60;5.72;;;;;;;;;;5033575;28;20091;-79
2021/08/04 00:19:09;;;;;;;6.28;5.35;;;;;;;;;;5045731;28;20047;-79
2021/08/04 00:21:34;;;;;;;7.72;5.85;;;;;;;;;;5009179;28;20046;-79
2021/08/04 00:24:00;;;;;;;6.32;5.05;;;;;;;;;;4997390;28;20407;-79
2021/08/04 00:26:25;;;;;;;6.88;5.50;;;;;;;;;;4997052;28;20034;-79
2021/08/04 00:28:51;;;;;;;5.50;5.00;;;;;;;;;;4997210;28;20056;-78
2021/08/04 00:31:17;;;;;;;6.82;6.13;;;;;;;;;;4997326;28;20493;-79
2021/08/04 00:33:42;;;;;;;5.80;5.20;;;;;;;;;;5002145;28;20125;-79
2021/08/04 00:36:08;;;;;;;6.07;5.35;;;;;;;;;;5020210;28;20056;-79
2021/08/04 00:38:33;;;;;;;8.77;5.30;;;;;;;;;;5006188;28;20116;-78
2021/08/04 00:40:59;;;;;;;7.68;5.85;;;;;;;;;;5013154;28;20132;-79
2021/08/04 00:43:24;;;;;;;6.70;5.63;;;;;;;;;;5013329;28;20038;-78
2021/08/04 00:45:50;;;;;;;6.43;5.68;;;;;;;;;;5013209;28;20053;-79
2021/08/04 00:48:16;;;;;;;6.32;5.32;;;;;;;;;;4999501;28;20107;-79
2021/08/04 00:50:42;;;;;;;6.93;5.55;;;;;;;;;;5019962;28;20490;-78
2021/08/04 00:53:20;;;;;;;5.93;5.30;;;;;;;;;;5019418;28;20087;-79
2021/08/04 00:55:46;;;;;;;7.22;5.07;;;;;;;;;;5052823;28;20033;-79
2021/08/04 00:58:11;;;;;;;6.05;5.10;;;;;;;;;;5010171;28;20064;-78
2021/08/04 01:00:39;;;;;;;6.07;5.47;;;;;;;;;;5015995;28;20057;-78
2021/08/04 01:03:05;;;;;;;6.93;5.32;;;;;;;;;;5015948;28;20504;-78
2021/08/04 01:05:54;;;;;;;5.60;5.07;;;;;;;;;;5032658;28;20034;-78
2021/08/04 01:08:28;;;;;;;6.55;5.65;;;;;;;;;;5006617;28;20049;-78
2021/08/04 01:10:53;;;;;;;6.55;5.10;;;;;;;;;;4980188;28;20048;-79
2021/08/04 01:13:26;;;;;;;6.70;4.90;;;;;;;;;;5012703;28;20116;-79
2021/08/04 01:16:10;;;;;;;;;;;;;;;;;;5021263;28;20116;-78
2021/08/04 01:18:58;;;;;;;6.20;5.60;;;;;;;;;;5045393;28;20410;-79
2021/08/04 01:21:47;;;;;;;5.88;5.28;;;;;;;;;;5052145;28;20112;-79
2021/08/04 01:24:51;;;;;;;5.57;4.75;;;;;;;;;;5020948;28;20423;-79
2021/08/04 01:27:17;;;;;;;5.10;4.60;;;;;;;;;;5037420;28;20139;-79
2021/08/04 01:29:42;;;;;;;6.30;5.20;;;;;;;;;;5018900;28;20039;-79
2021/08/04 01:32:08;;;;;;;6.65;5.40;;;;;;;;;;5019164;28;20037;-78
2021/08/04 01:34:35;;;;;;;5.13;4.63;;;;;;;;;;5018617;28;20572;-78
2021/08/04 01:37:01;;;;;;;5.65;5.10;;;;;;;;;;5012252;28;20045;-79
2021/08/04 01:39:26;;;;;;;6.18;4.68;;;;;;;;;;5012195;28;20550;-78
2021/08/04 01:41:52;;;;;;;5.80;4.70;;;;;;;;;;5012721;28;20046;-79
2021/08/04 01:44:17;;;;;;;5.57;4.93;;;;;;;;;;5014677;28;20047;-78
2021/08/04 01:46:43;;;;;;;5.70;4.78;;;;;;;;;;5002327;28;20098;-79
2021/08/04 01:49:09;;;;;;;5.55;4.95;;;;;;;;;;4995057;28;20037;-79
2021/08/04 01:51:35;;;;;;;7.30;5.07;;;;;;;;;;4995907;28;20049;-79
2021/08/04 01:54:00;;;;;;;7.90;5.63;;;;;;;;;;5011896;28;20037;-79
2021/08/04 01:56:26;;;;;;;6.22;4.38;;;;;;;;;;4995605;28;20103;-78
2021/08/04 01:58:51;;;;;;;4.95;4.45;;;;;;;;;;4995822;28;20033;-79
2021/08/04 02:01:17;;;;;;;6.65;4.57;;;;;;;;;;4981128;28;20038;-79
2021/08/04 02:03:42;;;;;;;5.72;4.57;;;;;;;;;;4998382;28;20063;-79
2021/08/04 02:06:35;;;;;;;5.53;4.47;;;;;;;;;;4998698;28;20046;-79
2021/08/04 02:09:07;;;;;;;6.15;4.55;;;;;;;;;;5031308;28;20509;-78
2021/08/04 02:11:47;;;;;;;6.32;3.83;;;;;;;;;;5020715;28;20041;-79
2021/08/04 02:14:28;;;;;;;6.68;4.53;;;;;;;;;;5034777;28;20083;-79
2021/08/04 02:17:01;;;;;;;7.03;5.00;;;;;;;;;;5004145;28;20036;-79
2021/08/04 02:19:30;;;;;;;5.13;4.45;;;;;;;;;;4997863;28;20025;-79
2021/08/04 02:22:08;;;;;;;5.78;4.35;;;;;;;;;;5015115;28;20131;-79
2021/08/04 02:24:35;;;;;;;11.32;4.50;;;;;;;;;;5014625;28;20492;-79
2021/08/04 02:27:01;;;;;;;5.55;4.25;;;;;;;;;;4994918;28;20415;-79
2021/08/04 02:29:28;;;;;;;6.03;4.53;;;;;;;;;;4994904;28;20138;-79
2021/08/04 02:31:54;;;;;;;5.65;4.05;;;;;;;;;;5024850;28;20087;-79
2021/08/04 02:34:19;;;;;;;5.00;3.72;;;;;;;;;;5001125;28;20040;-79
2021/08/04 02:36:45;;;;;;;4.70;3.80;;;;;;;;;;5017939;28;20033;-79
2021/08/04 02:39:10;;;;;;;5.05;3.63;;;;;;;;;;5033927;28;20051;-78
2021/08/04 02:41:36;;;;;;;4.97;4.55;;;;;;;;;;5034344;28;20055;-79
2021/08/04 02:44:01;;;;;;;5.15;4.65;;;;;;;;;;5034145;28;20040;-78
2021/08/04 02:46:29;;;;;;;5.18;3.80;;;;;;;;;;5000895;28;20043;-79
2021/08/04 02:48:55;;;;;;;6.03;4.30;;;;;;;;;;4996738;28;20037;-79
2021/08/04 02:51:22;;;;;;;4.88;4.13;;;;;;;;;;5010184;28;20098;-79
2021/08/04 02:53:54;;;;;;;4.57;4.18;;;;;;;;;;5017449;28;20033;-79
2021/08/04 02:56:19;;;;;;;4.97;4.13;;;;;;;;;;5017293;28;20025;-78
2021/08/04 02:58:45;;;;;;;5.05;4.35;;;;;;;;;;5017190;28;20136;-79
2021/08/04 03:01:10;;;;;;;5.10;4.00;;;;;;;;;;5016987;28;20082;-79
2021/08/04 03:03:36;;;;;;;4.97;4.30;;;;;;;;;;5025614;28;20068;-79
2021/08/04 03:06:02;;;;;;;4.57;3.90;;;;;;;;;;4978348;28;20033;-79
2021/08/04 03:08:27;;;;;;;5.78;3.85;;;;;;;;;;5011713;28;20057;-79
2021/08/04 03:10:53;;;;;;;6.88;3.95;;;;;;;;;;5035546;28;20078;-79
2021/08/04 03:13:19;;;;;;;5.43;3.80;;;;;;;;;;5033659;28;20037;-79
2021/08/04 03:15:44;;;;;;;5.50;3.78;;;;;;;;;;5012219;28;20036;-79
2021/08/04 03:18:12;;;;;;;4.40;4.00;;;;;;;;;;5013939;28;20450;-79
2021/08/04 03:20:38;;;;;;;4.97;3.92;;;;;;;;;;5013798;28;20076;-79
2021/08/04 03:23:03;;;;;;;4.95;4.10;;;;;;;;;;4997393;28;20037;-79
2021/08/04 03:25:29;;;;;;;4.25;3.20;;;;;;;;;;5013721;28;20116;-80
2021/08/04 03:27:55;;;;;;;4.80;3.90;;;;;;;;;;5030418;28;20455;-79
2021/08/04 03:30:20;;;;;;;4.88;3.53;;;;;;;;;;5000333;28;20033;-79
2021/08/04 03:32:46;;;;;;;4.03;3.40;;;;;;;;;;5017614;28;20130;-78
2021/08/04 03:35:11;;;;;;;5.25;4.05;;;;;;;;;;5032929;28;20041;-78
2021/08/04 03:37:37;;;;;;;4.45;3.50;;;;;;;;;;5033526;28;20384;-79
2021/08/04 03:40:03;;;;;;;5.57;3.95;;;;;;;;;;5033242;28;20026;-79
2021/08/04 03:42:28;;;;;;;5.30;3.78;;;;;;;;;;5016903;28;20036;-79
2021/08/04 03:44:54;;;;;;;5.47;3.75;;;;;;;;;;5016662;28;20029;-79
2021/08/04 03:47:19;;;;;;;5.05;3.42;;;;;;;;;;5028906;28;20083;-79
2021/08/04 03:49:45;;;;;;;4.63;3.50;;;;;;;;;;5013860;28;20034;-79
2021/08/04 03:52:10;;;;;;;4.88;3.85;;;;;;;;;;5033533;28;20049;-79
2021/08/04 03:54:36;;;;;;;4.32;3.75;;;;;;;;;;5016841;28;20120;-79
2021/08/04 03:57:01;;;;;;;6.10;4.05;;;;;;;;;;5016549;28;20059;-79
2021/08/04 03:59:27;;;;;;;4.15;3.38;;;;;;;;;;4996802;28;20037;-79
2021/08/04 04:01:52;;;;;;;4.15;3.58;;;;;;;;;;5013270;28;20033;-79
2021/08/04 04:04:18;;;;;;;4.20;3.53;;;;;;;;;;5012984;28;20045;-79
2021/08/04 04:06:43;;;;;;;4.32;3.28;;;;;;;;;;5013094;28;20048;-79
2021/08/04 04:09:09;;;;;;;5.35;3.35;;;;;;;;;;5013404;28;20030;-79
2021/08/04 04:11:36;;;;;;;5.00;3.50;;;;;;;;;;5013529;28;20033;-79
2021/08/04 04:14:01;;;;;;;6.70;3.83;;;;;;;;;;5032852;28;20048;-80
2021/08/04 04:16:27;;;;;;;4.13;3.38;;;;;;;;;;5006240;28;20069;-78
2021/08/04 04:18:52;;;;;;;4.28;3.65;;;;;;;;;;5029314;28;20037;-79
2021/08/04 04:21:18;;;;;;;4.85;3.97;;;;;;;;;;5032595;28;20033;-79
2021/08/04 04:23:43;;;;;;;6.25;3.50;;;;;;;;;;5015765;28;20030;-79
2021/08/04 04:26:09;;;;;;;4.90;4.07;;;;;;;;;;4997273;28;20042;-79
2021/08/04 04:28:34;;;;;;;3.55;3.15;;;;;;;;;;4996992;28;20034;-79
2021/08/04 04:31:00;;;;;;;4.35;3.50;;;;;;;;;;5013508;28;20045;-79
2021/08/04 04:33:25;;;;;;;5.38;4.22;;;;;;;;;;5013241;28;20029;-79
2021/08/04 04:35:51;;;;;;;4.63;3.47;;;;;;;;;;5013296;28;20137;-80
2021/08/04 04:38:16;;;;;;;4.45;3.72;;;;;;;;;;5013215;28;20029;-79
2021/08/04 04:40:42;;;;;;;4.15;3.72;;;;;;;;;;5019713;28;20029;-79
2021/08/04 04:43:07;;;;;;;4.20;3.17;;;;;;;;;;5020092;28;20056;-80
2021/08/04 04:45:33;;;;;;;4.43;3.83;;;;;;;;;;5019982;28;20146;-79
2021/08/04 04:47:58;;;;;;;4.25;3.60;;;;;;;;;;5025303;28;20467;-79
2021/08/04 04:50:24;;;;;;;4.55;3.60;;;;;;;;;;5000451;28;20037;-79
2021/08/04 04:52:49;;;;;;;3.92;3.45;;;;;;;;;;5012167;28;20116;-79
2021/08/04 04:55:15;;;;;;;4.57;3.67;;;;;;;;;;4980664;28;20056;-79
2021/08/04 04:57:40;;;;;;;4.38;3.65;;;;;;;;;;4996340;28;20034;-79
2021/08/04 05:00:06;;;;;;;4.30;3.53;;;;;;;;;;4996977;28;20111;-79
2021/08/04 05:02:32;;;;;;;4.40;3.75;;;;;;;;;;5000910;28;20072;-79
2021/08/04 05:04:58;;;;;;;5.05;3.90;;;;;;;;;;5035657;28;20041;-79
2021/08/04 05:07:24;;;;;;;4.55;3.55;;;;;;;;;;5036243;28;20039;-79
2021/08/04 05:09:50;;;;;;;3.88;2.90;;;;;;;;;;5019511;28;20037;-79
2021/08/04 05:12:15;;;;;;;4.75;3.17;;;;;;;;;;5019320;28;20414;-79
2021/08/04 05:14:41;;;;;;;4.40;3.00;;;;;;;;;;5019377;28;20033;-79
2021/08/04 05:17:10;;;;;;;4.20;3.15;;;;;;;;;;5003417;28;20048;-79
2021/08/04 05:19:35;;;;;;;3.80;2.95;;;;;;;;;;4984193;28;20043;-79
2021/08/04 05:22:01;;;;;;;3.67;2.88;;;;;;;;;;4999467;28;20037;-79
2021/08/04 05:24:26;;;;;;;3.83;3.13;;;;;;;;;;4986169;28;20044;-80
2021/08/04 05:26:52;;;;;;;4.55;3.05;;;;;;;;;;5035292;28;20048;-79
2021/08/04 05:29:17;;;;;;;7.50;3.60;;;;;;;;;;5019191;28;20033;-79
2021/08/04 05:31:43;;;;;;;5.15;3.03;;;;;;;;;;5002391;28;20025;-79
2021/08/04 05:34:08;;;;;;;4.32;3.15;;;;;;;;;;5018013;28;20033;-79
2021/08/04 05:36:34;;;;;;;3.95;2.80;;;;;;;;;;5018455;28;20056;-79
2021/08/04 05:38:59;;;;;;;3.30;2.83;;;;;;;;;;5018718;28;20037;-79
2021/08/04 05:41:25;;;;;;;3.25;2.30;;;;;;;;;;5002196;28;20040;-79
2021/08/04 05:43:50;;;;;;;3.15;2.83;;;;;;;;;;5018873;28;20399;-79
2021/08/04 05:46:16;;;;;;;3.30;2.35;;;;;;;;;;4995351;28;20048;-79
2021/08/04 05:48:41;;;;;;;3.88;2.70;;;;;;;;;;5002375;28;20487;-79
2021/08/04 05:51:07;;;;;;;3.67;3.25;;;;;;;;;;5015202;28;20033;-79
2021/08/04 05:53:32;;;;;;;3.53;2.45;;;;;;;;;;5015362;28;20488;-79
2021/08/04 05:55:58;;;;;;;2.90;2.47;;;;;;;;;;5015033;28;20124;-80
2021/08/04 05:58:23;;;;;;;5.03;2.70;;;;;;;;;;5031715;28;20045;-79
2021/08/04 06:00:48;;;;;;;2.85;2.28;;;;;;;;;;5015082;28;20044;-79
2021/08/04 06:03:14;;;;;;;3.10;2.38;;;;;;;;;;5014821;28;20037;-79
2021/08/04 06:05:39;;;;;;;5.13;2.67;;;;;;;;;;4998444;28;20038;-80
2021/08/04 06:08:07;;;;;;;2.72;2.33;;;;;;;;;;4998708;28;20037;-80
2021/08/04 06:10:34;;;;;;;3.17;2.28;;;;;;;;;;4998751;28;20552;-80
2021/08/04 06:12:59;;;;;;;3.17;2.67;;;;;;;;;;4982779;28;20124;-80
2021/08/04 06:15:25;;;;;;;3.15;2.38;;;;;;;;;;5014971;28;20033;-80
2021/08/04 06:17:50;;;;;;;3.58;2.65;;;;;;;;;;5030873;28;20112;-79
2021/08/04 06:20:16;;;;;;;2.95;2.10;;;;;;;;;;4981744;28;20041;-79
2021/08/04 06:22:42;;;;;;;3.17;2.63;;;;;;;;;;5006000;28;20037;-79
2021/08/04 06:25:07;;;;;;;2.83;2.40;;;;;;;;;;5001828;28;20034;-80
2021/08/04 06:27:33;;;;;;;2.97;2.28;;;;;;;;;;4998395;28;20029;-79
2021/08/04 06:29:58;;;;;;;2.75;2.30;;;;;;;;;;4998487;28;20488;-79
2021/08/04 06:32:24;;;;;;;3.22;2.53;;;;;;;;;;5014518;28;20056;-79
2021/08/04 06:34:49;;;;;;;4.07;2.58;;;;;;;;;;5014706;28;20025;-79
2021/08/04 06:37:15;;;;;;;2.63;2.05;;;;;;;;;;4997812;28;20072;-80
2021/08/04 06:39:40;;;;;;;2.95;2.20;;;;;;;;;;5012985;28;20036;-79
2021/08/04 06:42:06;;;;;;;3.90;2.20;;;;;;;;;;4998074;28;20454;-80
2021/08/04 06:44:31;;;;;;;2.70;2.30;;;;;;;;;;4998019;28;20442;-80
2021/08/04 06:46:57;;;;;;;3.33;1.73;;;;;;;;;;5000973;28;20038;-79
2021/08/04 06:49:23;;;;;;;2.85;2.20;;;;;;;;;;4997758;28;20033;-79
2021/08/04 06:51:49;;;;;;;4.65;2.33;;;;;;;;;;4998225;28;20037;-80
2021/08/04 06:54:14;;;;;;;7.00;2.13;;;;;;;;;;5014012;28;20084;-79
2021/08/04 06:56:40;;;;;;;3.22;2.35;;;;;;;;;;5030690;28;20400;-79
2021/08/04 06:59:05;;;;;;;3.10;2.25;;;;;;;;;;5014038;28;20033;-79
2021/08/04 07:01:31;;;;;;;4.95;2.35;;;;;;;;;;4998218;28;20116;-80
2021/08/04 07:03:56;;;;;;;3.53;2.53;;;;;;;;;;4997327;28;20045;-80
2021/08/04 07:06:22;;;;;;;2.88;2.20;;;;;;;;;;5031178;28;20034;-87
2021/08/04 07:08:47;;;;;;;3.40;1.98;;;;;;;;;;4998315;28;20116;-82
2021/08/04 07:11:13;;;;;;;3.53;2.40;;;;;;;;;;5030918;28;20075;-80
2021/08/04 07:13:39;;;;;;;6.55;3.10;;;;;;;;;;5014318;28;20120;-80
2021/08/04 07:16:04;;;;;;;3.47;2.00;;;;;;;;;;4994326;28;20377;-81
2021/08/04 07:18:33;;;;;;;4.90;2.42;;;;;;;;;;5014691;28;20061;-81
2021/08/04 07:20:58;;;;;;;3.17;2.42;;;;;;;;;;5017878;28;20029;-80
2021/08/04 07:23:24;;;;;;;4.55;2.45;;;;;;;;;;5016789;28;20099;-80
2021/08/04 07:25:49;;;;;;;3.70;2.47;;;;;;;;;;5017229;28;20033;-81
2021/08/04 07:28:15;;;;;;;4.38;2.55;;;;;;;;;;5017347;28;20040;-81
2021/08/04 07:30:40;;;;;;;3.65;2.55;;;;;;;;;;5010797;28;20396;-82
2021/08/04 07:33:06;;;;;;;3.40;2.40;;;;;;;;;;5013729;28;20095;-79
2021/08/04 07:35:31;;;;;;;3.45;2.05;;;;;;;;;;5012128;28;20037;-80
2021/08/04 07:37:57;;;;;;;5.05;2.40;;;;;;;;;;5025118;28;20041;-79
2021/08/04 07:40:22;;;;;;;3.33;2.53;;;;;;;;;;4994939;28;20030;-80
2021/08/04 07:42:49;;;;;;;3.92;2.47;;;;;;;;;;5009385;28;20033;-80
2021/08/04 07:45:15;;;;;;;4.22;2.38;;;;;;;;;;5020288;28;20037;-80
2021/08/04 07:47:41;;;;;;;3.08;2.55;;;;;;;;;;5013080;28;20029;-79
2021/08/04 07:50:07;;;;;;;3.50;2.33;;;;;;;;;;5014499;28;20055;-80
2021/08/04 07:52:32;;;;;;;3.90;2.90;;;;;;;;;;5010038;28;20100;-79
2021/08/04 07:54:58;;;;;;;3.60;2.30;;;;;;;;;;5009946;28;20041;-79
2021/08/04 07:57:23;;;;;;;3.75;2.40;;;;;;;;;;5001269;28;20100;-79
2021/08/04 07:59:49;;;;;;;5.10;2.47;;;;;;;;;;5001925;28;20061;-79
2021/08/04 08:02:14;;;;;;;4.18;3.00;;;;;;;;;;5015053;28;20044;-79
2021/08/04 08:04:39;;;;;;;5.03;3.08;;;;;;;;;;5031082;28;20060;-79
2021/08/04 08:07:05;;;;;;;3.58;2.80;;;;;;;;;;5017774;28;20045;-79
2021/08/04 08:09:30;;;;;;;4.32;3.10;;;;;;;;;;5011113;28;20040;-79
2021/08/04 08:11:58;;;;;;;5.13;2.80;;;;;;;;;;5017426;28;20685;-79
2021/08/04 08:14:24;;;;;;;4.25;3.28;;;;;;;;;;5017381;28;20033;-79
2021/08/04 08:16:50;;;;;;;8.43;4.70;;;;;;;;;;4999345;28;20530;-79
2021/08/04 08:19:16;;;;;;;7.72;5.45;;;;;;;;;;4998288;28;20029;-79
2021/08/04 08:21:41;;;;;;;8.00;5.72;;;;;;;;;;5015636;28;21583;-80
2021/08/04 08:24:07;;;;;;;6.63;4.90;;;;;;;;;;5015813;28;20045;-79
2021/08/04 08:26:34;;;;;;;5.90;5.10;;;;;;;;;;5005619;28;20048;-80
2021/08/04 08:28:59;;;;;;;6.80;5.00;;;;;;;;;;5016144;28;20029;-79
2021/08/04 08:31:25;;;;;;;7.85;5.75;;;;;;;;;;5003156;28;20578;-79
2021/08/04 08:33:51;;;;;;;19.15;13.45;;;;;;;;;;4995405;28;20042;-79
2021/08/04 08:36:17;;;;;;;17.05;14.10;;;;;;;;;;5019700;28;20069;-79
2021/08/04 08:38:42;;;;;;;22.67;15.00;;;;;;;;;;5015482;28;20033;-79
2021/08/04 08:41:08;;;;;;;18.80;13.45;;;;;;;;;;5017128;28;20131;-79
2021/08/04 08:43:34;;;;;;;16.67;11.65;;;;;;;;;;5019693;28;20052;-80
2021/08/04 08:46:01;;;;;;;13.68;10.68;;;;;;;;;;4998474;28;20033;-79
2021/08/04 08:48:27;;;;;;;13.77;9.70;;;;;;;;;;5015801;28;20187;-80
2021/08/04 08:50:53;;;;;;;13.15;9.43;;;;;;;;;;4998812;28;20030;-79
2021/08/04 08:53:20;;;;;;;11.82;8.35;;;;;;;;;;5020774;28;20124;-79
2021/08/04 08:55:46;;;;;;;13.85;8.45;;;;;;;;;;4990740;28;20056;-80
2021/08/04 08:58:11;;;;;;;10.00;7.57;;;;;;;;;;5021609;28;20496;-80
2021/08/04 09:00:37;;;;;;;9.57;7.32;;;;;;;;;;5016534;28;20086;-80
2021/08/04 09:03:02;;;;;;;8.75;7.13;;;;;;;;;;5018137;28;20041;-80
2021/08/04 09:05:28;;;;;;;12.45;6.18;;;;;;;;;;5025602;28;20052;-80
2021/08/04 09:07:53;;;;;;;9.90;6.55;;;;;;;;;;5006236;28;20467;-80
2021/08/04 09:10:30;;;;;;;8.20;5.60;;;;;;;;;;5002990;28;20083;-80
2021/08/04 09:13:01;;;;;;;8.65;5.90;;;;;;;;;;4999163;28;20118;-79
2021/08/04 09:15:32;;;;;;;8.48;5.40;;;;;;;;;;5005670;28;20091;-80
2021/08/04 09:17:57;;;;;;;10.43;5.55;;;;;;;;;;5015597;28;20501;-80
2021/08/04 09:20:27;;;;;;;10.00;5.53;;;;;;;;;;5038043;28;20044;-80
2021/08/04 09:22:59;;;;;;;9.45;6.32;;;;;;;;;;5028443;28;20037;-80
2021/08/04 09:25:25;;;;;;;7.80;5.80;;;;;;;;;;5000013;28;20521;-79
2021/08/04 09:27:52;;;;;;;10.18;5.50;;;;;;;;;;5017050;28;20266;-79
2021/08/04 09:30:30;;;;;;;8.68;5.85;;;;;;;;;;5012364;28;20030;-79
2021/08/04 09:33:15;;;;;;;6.45;5.28;;;;;;;;;;4993423;28;20173;-80
2021/08/04 09:35:42;;;;;;;5.97;4.95;;;;;;;;;;5017759;28;20033;-79
2021/08/04 09:38:09;;;;;;;7.53;5.20;;;;;;;;;;4997942;28;20037;-79
2021/08/04 09:40:34;;;;;;;6.85;4.85;;;;;;;;;;5014733;28;20028;-79
2021/08/04 09:43:00;;;;;;;17.50;14.13;;;;;;;;;;5014859;28;20041;-79
2021/08/04 09:45:48;;;;;;;12.27;10.98;;;;;;;;;;5031322;28;20041;-79
2021/08/04 09:48:16;;;;;;;11.10;9.70;;;;;;;;;;5014108;28;20037;-79
2021/08/04 09:50:51;;;;;;;12.45;8.82;;;;;;;;;;5030573;28;20030;-79
2021/08/04 09:53:35;;;;;;;10.73;9.30;;;;;;;;;;5014043;28;20037;-79
2021/08/04 09:56:15;;;;;;;11.30;10.10;;;;;;;;;;4997443;28;20458;-79
2021/08/04 09:58:44;;;;;;;8.73;7.85;;;;;;;;;;4987503;28;20045;-79
2021/08/04 10:01:14;;;;;;;10.05;8.45;;;;;;;;;;5014233;28;20022;-79
2021/08/04 10:04:00;;;;;;;8.95;7.95;;;;;;;;;;5014201;28;20095;-79
2021/08/04 10:06:26;;;;;;;10.70;9.63;;;;;;;;;;5006706;28;20090;-79
2021/08/04 10:08:52;;;;;;;9.68;7.95;;;;;;;;;;5014424;28;20045;-79
2021/08/04 10:11:18;;;;;;;8.95;8.05;;;;;;;;;;5001026;28;20154;-79
2021/08/04 10:13:43;;;;;;;9.85;8.77;;;;;;;;;;4997228;28;20043;-80
2021/08/04 10:16:08;;;;;;;13.77;9.63;;;;;;;;;;5032361;28;20040;-79
2021/08/04 10:18:34;;;;;;;11.57;9.43;;;;;;;;;;4992470;28;20064;-79
2021/08/04 10:21:05;;;;;;;10.55;9.40;;;;;;;;;;4999204;28;20068;-80
2021/08/04 10:23:31;;;;;;;12.80;8.77;;;;;;;;;;5017915;28;20038;-79
2021/08/04 10:25:57;;;;;;;10.45;8.52;;;;;;;;;;5000244;28;20510;-79
2021/08/04 10:28:22;;;;;;;10.80;9.70;;;;;;;;;;4995056;28;20069;-79
2021/08/04 10:30:48;;;;;;;11.63;10.38;;;;;;;;;;5003864;28;20547;-79
2021/08/04 10:33:13;;;;;;;10.55;9.30;;;;;;;;;;4994471;28;20038;-79
2021/08/04 10:36:07;;;;;;;8.73;7.78;;;;;;;;;;4978659;28;20053;-79
2021/08/04 10:38:33;;;;;;;10.95;8.75;;;;;;;;;;5010890;28;20496;-79
2021/08/04 10:41:17;;;;;;;11.77;9.73;;;;;;;;;;5014725;28;20034;-81
2021/08/04 10:43:46;;;;;;;12.18;10.40;;;;;;;;;;5034010;28;20049;-81
2021/08/04 10:46:32;;;;;;;15.68;9.23;;;;;;;;;;4997834;28;20120;-80
2021/08/04 10:49:04;;;;;;;12.40;10.10;;;;;;;;;;4995702;28;20041;-80
2021/08/04 10:51:43;;;;;;;11.52;10.32;;;;;;;;;;5020918;28;20033;-80
2021/08/04 10:54:15;;;;;;;13.13;9.82;;;;;;;;;;5010165;28;20045;-80
2021/08/04 10:56:43;;;;;;;10.00;8.82;;;;;;;;;;5044244;28;20045;-80
2021/08/04 10:59:09;;;;;;;13.68;12.25;;;;;;;;;;5043035;28;20487;-80
2021/08/04 11:01:37;;;;;;;12.65;11.40;;;;;;;;;;5029463;28;20143;-80
2021/08/04 11:04:03;;;;;;;10.65;9.65;;;;;;;;;;5014037;28;20119;-80
2021/08/04 11:06:29;;;;;;;9.10;8.15;;;;;;;;;;5017546;28;20056;-80
2021/08/04 11:09:12;;;;;;;9.02;8.13;;;;;;;;;;4997431;28;20500;-80
2021/08/04 11:11:57;;;;;;;10.13;8.90;;;;;;;;;;5013898;28;20040;-80
2021/08/04 11:14:47;;;;;;;9.95;7.75;;;;;;;;;;5003786;28;20071;-80
2021/08/04 11:17:14;;;;;;;10.68;8.45;;;;;;;;;;5019403;28;20049;-80
2021/08/04 11:20:02;;;;;;;14.07;9.43;;;;;;;;;;5030012;28;20044;-80
2021/08/04 11:22:34;;;;;;;12.57;9.82;;;;;;;;;;5058485;28;20040;-80
2021/08/04 11:25:00;;;;;;;9.90;8.65;;;;;;;;;;5016965;28;20061;-80
2021/08/04 11:27:27;;;;;;;9.85;8.90;;;;;;;;;;5014769;28;20076;-80
2021/08/04 11:29:54;;;;;;;9.85;8.85;;;;;;;;;;5013761;28;20042;-80
2021/08/04 11:32:20;;;;;;;10.45;9.48;;;;;;;;;;5024971;28;20084;-80
2021/08/04 11:34:46;;;;;;;11.15;9.10;;;;;;;;;;5005462;28;20064;-80
2021/08/04 11:37:12;;;;;;;11.15;9.75;;;;;;;;;;5022140;28;20091;-81
2021/08/04 11:39:56;;;;;;;11.60;10.35;;;;;;;;;;4997780;28;20049;-80
2021/08/04 11:42:22;;;;;;;9.10;8.20;;;;;;;;;;4999300;28;20087;-81
2021/08/04 11:44:48;;;;;;;11.48;9.32;;;;;;;;;;4998207;28;20519;-80
2021/08/04 11:47:13;;;;;;;10.02;8.80;;;;;;;;;;4984993;28;20060;-80
2021/08/04 11:49:41;;;;;;;11.38;10.25;;;;;;;;;;4984772;28;20060;-80
2021/08/04 11:52:16;;;;;;;13.50;10.20;;;;;;;;;;4997515;28;20152;-80
2021/08/04 11:54:46;;;;;;;11.05;9.95;;;;;;;;;;5000198;28;20128;-80
2021/08/04 11:57:20;;;;;;;13.05;8.93;;;;;;;;;;5012794;28;20049;-80
2021/08/04 11:59:53;;;;;;;8.68;7.68;;;;;;;;;;5014188;28;20078;-80
2021/08/04 12:02:21;;;;;;;11.38;9.80;;;;;;;;;;5013455;28;20095;-80
2021/08/04 12:04:54;;;;;;;21.35;12.60;;;;;;;;;;5018370;28;20127;-81
2021/08/04 12:07:22;;;;;;;11.35;8.48;;;;;;;;;;5020691;28;20049;-81
2021/08/04 12:09:48;;;;;;;12.75;8.85;;;;;;;;;;5021114;28;20044;-80
2021/08/04 12:12:18;;;;;;;10.02;7.13;;;;;;;;;;5018996;28;20055;-81
2021/08/04 12:14:44;;;;;;;8.27;6.63;;;;;;;;;;5012522;28;20443;-80
2021/08/04 12:17:10;;;;;;;9.65;6.60;;;;;;;;;;5020356;28;20423;-80
2021/08/04 12:19:41;;;;;;;6.10;5.40;;;;;;;;;;5010086;28;20030;-81
2021/08/04 12:22:09;;;;;;;7.97;5.45;;;;;;;;;;5022028;28;20037;-80
2021/08/04 12:24:39;;;;;;;8.32;5.53;;;;;;;;;;5011505;28;20108;-80
2021/08/04 12:27:05;;;;;;;6.13;5.35;;;;;;;;;;5001202;28;20063;-80
2021/08/04 12:29:30;;;;;;;7.70;5.03;;;;;;;;;;5016623;28;20030;-80
2021/08/04 12:32:05;;;;;;;6.97;4.78;;;;;;;;;;5000100;28;20040;-80
2021/08/04 12:34:30;;;;;;;5.47;4.45;;;;;;;;;;5029840;28;20083;-80
2021/08/04 12:36:56;;;;;;;6.80;4.93;;;;;;;;;;5000723;28;20407;-81
2021/08/04 12:39:27;;;;;;;6.97;5.15;;;;;;;;;;5016525;28;20041;-80
2021/08/04 12:41:53;;;;;;;6.18;4.57;;;;;;;;;;5015907;28;20033;-80
2021/08/04 12:44:19;;;;;;;6.65;4.85;;;;;;;;;;5016373;28;20756;-80
2021/08/04 12:46:45;;;;;;;7.43;5.03;;;;;;;;;;4997658;28;20042;-79
2021/08/04 12:49:17;;;;;;;9.25;5.97;;;;;;;;;;4999434;28;20400;-82
2021/08/04 12:51:56;;;;;;;7.03;5.45;;;;;;;;;;5006387;28;20098;-80
2021/08/04 12:54:27;;;;;;;8.52;6.72;;;;;;;;;;5035917;28;20028;-80
2021/08/04 12:56:52;;;;;;;33.70;9.85;;;;;;;;;;5019531;28;20048;-79
2021/08/04 12:59:19;;;;;;;11.05;7.65;;;;;;;;;;5019385;28;20041;-79
2021/08/04 13:01:49;;;;;;;11.98;8.55;;;;;;;;;;5004518;28;20041;-80
2021/08/04 13:04:23;;;;;;;11.27;10.07;;;;;;;;;;5015762;28;20037;-80
2021/08/04 13:06:53;;;;;;;11.25;9.85;;;;;;;;;;5013911;28;20049;-80
2021/08/04 13:09:20;;;;;;;9.15;7.88;;;;;;;;;;5012714;28;20509;-80
2021/08/04 13:11:46;;;;;;;11.75;9.68;;;;;;;;;;5000589;28;20049;-80
2021/08/04 13:14:12;;;;;;;11.55;9.02;;;;;;;;;;4999613;28;20091;-80
2021/08/04 13:16:38;;;;;;;10.80;8.60;;;;;;;;;;4996464;28;20038;-80
2021/08/04 13:19:23;;;;;;;11.77;10.50;;;;;;;;;;4998928;28;20128;-80
2021/08/04 13:22:06;;;;;;;11.85;10.65;;;;;;;;;;5000451;28;20448;-80
2021/08/04 13:24:34;;;;;;;12.30;11.00;;;;;;;;;;4999677;28;20061;-80
2021/08/04 13:26:59;;;;;;;13.98;10.40;;;;;;;;;;4980575;28;20125;-80
2021/08/04 13:29:32;;;;;;;12.50;11.15;;;;;;;;;;4979824;28;20179;-80
2021/08/04 13:32:00;;;;;;;13.82;10.88;;;;;;;;;;5014883;28;20091;-80
2021/08/04 13:34:26;;;;;;;11.57;10.35;;;;;;;;;;5004280;28;20612;-80
2021/08/04 13:36:53;;;;;;;13.90;9.43;;;;;;;;;;5002721;28;20124;-80
2021/08/04 13:39:20;;;;;;;11.40;9.77;;;;;;;;;;4998812;28;20180;-80
2021/08/04 13:41:46;;;;;;;10.30;9.40;;;;;;;;;;4998890;28;20037;-80
2021/08/04 13:44:12;;;;;;;12.57;9.85;;;;;;;;;;5011536;28;20103;-79
2021/08/04 13:46:37;;;;;;;10.75;8.18;;;;;;;;;;5006663;28;20115;-80
2021/08/04 13:49:03;;;;;;;8.77;7.88;;;;;;;;;;5014996;28;20053;-79
2021/08/04 13:51:28;;;;;;;7.95;6.35;;;;;;;;;;5027205;28;20140;-79
2021/08/04 13:53:54;;;;;;;8.77;6.50;;;;;;;;;;5005811;28;20056;-80
2021/08/04 13:56:19;;;;;;;9.30;7.13;;;;;;;;;;5016400;28;20051;-80
2021/08/04 13:58:45;;;;;;;8.25;6.60;;;;;;;;;;5042340;28;20038;-79
2021/08/04 14:01:11;;;;;;;7.95;7.18;;;;;;;;;;4998753;28;20080;-80
2021/08/04 14:03:36;;;;;;;6.68;6.07;;;;;;;;;;5049399;28;20048;-79
2021/08/04 14:06:02;;;;;;;7.40;6.70;;;;;;;;;;5034359;28;20118;-79
2021/08/04 14:08:27;;;;;;;6.95;6.25;;;;;;;;;;5001062;28;20491;-79
2021/08/04 14:10:52;;;;;;;8.05;7.15;;;;;;;;;;5005063;28;20068;-80
2021/08/04 14:13:18;;;;;;;7.90;6.70;;;;;;;;;;5017285;28;20029;-80
2021/08/04 14:15:43;;;;;;;6.68;6.05;;;;;;;;;;5011808;28;20029;-80
2021/08/04 14:18:09;;;;;;;8.00;6.72;;;;;;;;;;4997929;28;20044;-80
2021/08/04 14:20:35;;;;;;;7.32;6.07;;;;;;;;;;4994812;28;20034;-80
2021/08/04 14:23:01;;;;;;;7.93;6.32;;;;;;;;;;5023148;28;20213;-80
2021/08/04 14:25:26;;;;;;;9.02;6.68;;;;;;;;;;5018096;28;20112;-80
2021/08/04 14:27:52;;;;;;;11.40;6.40;;;;;;;;;;5012864;28;20045;-80
2021/08/04 14:30:17;;;;;;;6.53;5.85;;;;;;;;;;5002749;28;20061;-79
2021/08/04 14:32:43;;;;;;;8.98;5.75;;;;;;;;;;5002885;28;20040;-80
2021/08/04 14:35:09;;;;;;;7.55;5.45;;;;;;;;;;5013196;28;20037;-79
2021/08/04 14:37:35;;;;;;;7.32;6.10;;;;;;;;;;5011156;28;20117;-80
2021/08/04 14:40:01;;;;;;;7.95;5.65;;;;;;;;;;4996143;28;20125;-79
2021/08/04 14:42:27;;;;;;;7.75;6.43;;;;;;;;;;4997198;28;20048;-80